Flag for France

Past Weather in Nîmes, Occitanie, France — Yesterday and Last 2 Weeks

Currently: 45 °F. Passing clouds. (Weather station: Nimes / Garons, France). See more current weather

Past Weather in Nîmes — Graph

°F

Nîmes Temperature Yesterday

Maximum temperature yesterday: 52 °F (at 1:30 pm)
Minimum temperature yesterday: 39 °F (at 7:00 am)
Average temperature yesterday: 45 °F

High & Low Weather Summary for the Past Weeks

 TemperatureHumidityPressure
High61 °F (Jan 13, 1:00 pm)100% (Jan 22, 12:30 am)30.33 "Hg (Jan 22, 12:30 am)
Low27 °F (Jan 19, 5:00 am)35% (Jan 25, 2:30 pm)29.30 "Hg (Jan 22, 1:00 pm)
Average45 °F67%29.98 "Hg
* Reported Jan 10 5:00 pm — Jan 25 5:00 pm, Nîmes. Weather by CustomWeather, © 2021

Note: Actual official high and low records may vary slightly from our data, if they occured in-between our weather recording intervals... More about our weather records

Nîmes Weather History for the Previous 24 Hours

Scroll right to see more
 ConditionsComfort  
Time TempWeatherWind HumidityBarometerVisibility
5:00 pm
Mon, Jan 25
46 °FSunny.8 mph43%29.80 "Hg10 mi
4:30 pm48 °FPassing clouds.9 mph40%29.80 "HgN/A
4:00 pm48 °FPassing clouds.6 mph50%29.77 "HgN/A
3:30 pm50 °FPassing clouds.10 mph37%29.77 "HgN/A
3:00 pm52 °FPassing clouds.9 mph35%29.77 "HgN/A
2:30 pm52 °FPassing clouds.12 mph35%29.77 "HgN/A
2:00 pm50 °FPassing clouds.9 mph43%29.77 "HgN/A
1:30 pm50 °FPassing clouds.7 mph43%29.77 "HgN/A
1:00 pm48 °FPassing clouds.6 mph50%29.77 "HgN/A
12:30 pm50 °FPassing clouds.9 mph43%29.77 "HgN/A
12:00 pm48 °FSunny.6 mph50%29.77 "Hg10 mi
11:30 am48 °FPassing clouds.6 mph54%29.77 "HgN/A
11:00 am46 °FPassing clouds.5 mph62%29.77 "HgN/A
10:30 am46 °FMostly cloudy.6 mph62%29.74 "HgN/A
10:00 am45 °FPassing clouds.6 mph71%29.74 "HgN/A
9:30 am43 °FSunny.5 mph81%29.71 "Hg10 mi
9:00 am43 °FSunny.5 mph81%29.71 "Hg10 mi
8:30 am43 °FSunny.6 mph76%29.71 "Hg10 mi
8:00 am43 °FClear.6 mph81%29.71 "Hg10 mi
7:30 am45 °FClear.3 mph76%29.71 "Hg10 mi
7:00 am43 °FClear.3 mph81%29.68 "Hg10 mi
6:30 am43 °FPassing clouds.5 mph81%29.68 "HgN/A
6:00 am43 °FPassing clouds.5 mph87%29.68 "HgN/A
5:30 am43 °FClear.6 mph87%29.68 "Hg10 mi
5:00 am43 °FClear.7 mph87%29.68 "Hg10 mi
4:30 am43 °FPassing clouds.5 mph87%29.68 "HgN/A
4:00 am45 °FPassing clouds.8 mph87%29.65 "HgN/A
3:30 am45 °FPassing clouds.8 mph87%29.65 "HgN/A
3:00 am45 °FPassing clouds.9 mph87%29.65 "HgN/A
2:30 am46 °FPassing clouds.9 mph76%29.68 "HgN/A
2:00 am45 °FClear.10 mph87%29.65 "Hg10 mi
1:30 am46 °FPassing clouds.9 mph76%29.68 "HgN/A
1:00 am46 °FPassing clouds.10 mph76%29.68 "HgN/A
12:30 am46 °FClear.9 mph76%29.68 "Hg10 mi
12:00 am46 °FClear.10 mph76%29.68 "Hg10 mi
11:30 pm
Sun, Jan 24
46 °FMostly cloudy.9 mph76%29.68 "HgN/A
11:00 pm46 °FPassing clouds.8 mph76%29.71 "HgN/A
10:30 pm46 °FOvercast.9 mph71%29.71 "HgN/A
10:00 pm46 °FPassing clouds.9 mph71%29.71 "HgN/A
9:30 pm43 °FPassing clouds.8 mph76%29.71 "HgN/A
9:00 pm43 °FClear.6 mph76%29.71 "Hg10 mi
8:30 pm45 °FPassing clouds.7 mph71%29.71 "HgN/A
8:00 pm45 °FClear.8 mph71%29.74 "Hg10 mi
7:00 pm45 °FPassing clouds.5 mph61%29.71 "HgN/A
6:30 pm46 °FClear.3 mph57%29.71 "Hg10 mi
6:00 pm46 °FClear.5 mph57%29.71 "Hg10 mi
Weather by CustomWeather, © 2021

See weather overview